Burketown, Australia
Current Conditions -  °F | °C
As of 6:00 AM on Thursday 29 Jan 2015 (Local Time) from YBMA Reporting Station
Clear Clear  
Wind Chill: 75°   Ceiling: Unl
Heat Index: 75°   Visibility: 6mi
Dew Point: 32°   Wind: 13mph
Humidity: 21%   Direction: 180°S
Pressure: 29.71"   Gusts: NA
Location:  17.74°S, 139.55°E
Report Text: YBMA 282000Z 18011KT CAVOK 24/00 Q1006
Loading
Personal Weather Stations






























Interactive Weather Map New forecast layout! Learn more

10-Day Weather Forecast

Advertisements
Track Severe Weather on mobile